sensor_id;sensor_type;location;lat;lon;timestamp;pressure;altitude;pressure_sealevel;temperature;humidity
55538;BME280;41383;51.418;7.286;2023-05-21T00:00:24;100026.41;;;14.59;73.93
55538;BME280;41383;51.418;7.286;2023-05-21T00:02:49;100022.56;;;14.61;73.90
55538;BME280;41383;51.418;7.286;2023-05-21T00:05:15;100012.91;;;14.68;73.67
55538;BME280;41383;51.418;7.286;2023-05-21T00:07:43;100024.13;;;14.72;73.18
55538;BME280;41383;51.418;7.286;2023-05-21T00:10:08;100022.84;;;14.64;73.50
55538;BME280;41383;51.418;7.286;2023-05-21T00:12:34;100014.31;;;14.61;73.69
55538;BME280;41383;51.418;7.286;2023-05-21T00:14:59;100017.66;;;14.57;73.59
55538;BME280;41383;51.418;7.286;2023-05-21T00:17:26;100016.00;;;14.56;73.99
55538;BME280;41383;51.418;7.286;2023-05-21T00:19:51;100011.69;;;14.50;73.75
55538;BME280;41383;51.418;7.286;2023-05-21T00:22:17;100002.09;;;14.47;73.98
55538;BME280;41383;51.418;7.286;2023-05-21T00:24:42;99996.38;;;14.44;74.50
55538;BME280;41383;51.418;7.286;2023-05-21T00:27:10;99999.91;;;14.44;74.31
55538;BME280;41383;51.418;7.286;2023-05-21T00:29:35;99995.78;;;14.47;74.34
55538;BME280;41383;51.418;7.286;2023-05-21T00:32:01;99985.88;;;14.51;74.15
55538;BME280;41383;51.418;7.286;2023-05-21T00:34:26;99989.75;;;14.50;73.80
55538;BME280;41383;51.418;7.286;2023-05-21T00:36:51;99995.78;;;14.47;74.13
55538;BME280;41383;51.418;7.286;2023-05-21T00:39:17;99991.97;;;14.43;74.35
55538;BME280;41383;51.418;7.286;2023-05-21T00:41:42;99990.38;;;14.36;74.25
55538;BME280;41383;51.418;7.286;2023-05-21T00:44:10;99993.16;;;14.31;74.35
55538;BME280;41383;51.418;7.286;2023-05-21T00:46:38;99992.63;;;14.29;74.24
55538;BME280;41383;51.418;7.286;2023-05-21T00:49:04;99994.59;;;14.18;75.02
55538;BME280;41383;51.418;7.286;2023-05-21T00:51:29;99987.25;;;14.14;75.54
55538;BME280;41383;51.418;7.286;2023-05-21T00:53:55;99981.19;;;14.17;75.33
55538;BME280;41383;51.418;7.286;2023-05-21T00:56:22;99988.28;;;14.18;75.14
55538;BME280;41383;51.418;7.286;2023-05-21T00:58:49;99983.34;;;14.20;74.49
55538;BME280;41383;51.418;7.286;2023-05-21T01:01:16;99978.38;;;14.22;75.22
55538;BME280;41383;51.418;7.286;2023-05-21T01:03:42;99980.03;;;14.23;75.00
55538;BME280;41383;51.418;7.286;2023-05-21T01:06:08;99972.66;;;14.18;75.38
55538;BME280;41383;51.418;7.286;2023-05-21T01:08:34;99975.69;;;14.17;75.38
55538;BME280;41383;51.418;7.286;2023-05-21T01:11:02;99978.69;;;14.20;75.02
55538;BME280;41383;51.418;7.286;2023-05-21T01:13:28;99974.03;;;14.16;74.92
55538;BME280;41383;51.418;7.286;2023-05-21T01:15:53;99974.03;;;14.16;75.34
55538;BME280;41383;51.418;7.286;2023-05-21T01:18:19;99971.63;;;14.09;75.12
55538;BME280;41383;51.418;7.286;2023-05-21T01:20:45;99972.47;;;14.04;75.54
55538;BME280;41383;51.418;7.286;2023-05-21T01:23:15;99968.13;;;13.98;75.86
55538;BME280;41383;51.418;7.286;2023-05-21T01:25:41;99974.44;;;13.98;76.14
55538;BME280;41383;51.418;7.286;2023-05-21T01:28:06;99979.09;;;13.98;76.28
55538;BME280;41383;51.418;7.286;2023-05-21T01:30:32;99963.41;;;14.04;75.64
55538;BME280;41383;51.418;7.286;2023-05-21T01:33:02;99973.59;;;13.98;75.66
55538;BME280;41383;51.418;7.286;2023-05-21T01:35:34;99964.81;;;14.01;75.45
55538;BME280;41383;51.418;7.286;2023-05-21T01:38:04;99965.66;;;13.96;76.00
55538;BME280;41383;51.418;7.286;2023-05-21T01:40:51;99957.97;;;13.98;75.68
55538;BME280;41383;51.418;7.286;2023-05-21T01:43:18;99962.38;;;13.94;75.75
55538;BME280;41383;51.418;7.286;2023-05-21T01:45:45;99961.28;;;13.95;75.77
55538;BME280;41383;51.418;7.286;2023-05-21T01:48:11;99960.44;;;14.00;75.66
55538;BME280;41383;51.418;7.286;2023-05-21T01:50:39;99956.63;;;13.96;76.13
55538;BME280;41383;51.418;7.286;2023-05-21T01:53:05;99952.19;;;14.05;75.54
55538;BME280;41383;51.418;7.286;2023-05-21T01:55:31;99954.94;;;14.05;75.45
55538;BME280;41383;51.418;7.286;2023-05-21T01:57:57;99957.97;;;13.98;75.94
55538;BME280;41383;51.418;7.286;2023-05-21T02:00:25;99959.06;;;14.03;75.94
55538;BME280;41383;51.418;7.286;2023-05-21T02:02:52;99959.06;;;14.03;75.51
55538;BME280;41383;51.418;7.286;2023-05-21T02:05:18;99955.53;;;13.97;75.91
55538;BME280;41383;51.418;7.286;2023-05-21T02:07:44;99946.78;;;13.89;76.03
55538;BME280;41383;51.418;7.286;2023-05-21T02:10:10;99945.44;;;13.87;76.34
55538;BME280;41383;51.418;7.286;2023-05-21T02:12:36;99944.59;;;13.92;76.00
55538;BME280;41383;51.418;7.286;2023-05-21T02:15:01;99948.72;;;13.89;76.05
55538;BME280;41383;51.418;7.286;2023-05-21T02:17:27;99944.88;;;13.90;76.17
55538;BME280;41383;51.418;7.286;2023-05-21T02:19:55;99948.75;;;13.84;76.27
55538;BME280;41383;51.418;7.286;2023-05-21T02:22:21;99946.56;;;13.81;76.04
55538;BME280;41383;51.418;7.286;2023-05-21T02:24:46;99944.69;;;13.76;76.72
55538;BME280;41383;51.418;7.286;2023-05-21T02:27:11;99943.00;;;13.80;76.50
55538;BME280;41383;51.418;7.286;2023-05-21T02:29:37;99945.16;;;13.83;76.37
55538;BME280;41383;51.418;7.286;2023-05-21T02:32:03;99938.91;;;13.83;76.46
55538;BME280;41383;51.418;7.286;2023-05-21T02:34:28;99935.03;;;13.84;76.43
55538;BME280;41383;51.418;7.286;2023-05-21T02:36:56;99941.34;;;13.84;76.56
55538;BME280;41383;51.418;7.286;2023-05-21T02:39:23;99933.91;;;13.90;76.52
55538;BME280;41383;51.418;7.286;2023-05-21T02:41:48;99935.28;;;13.93;76.47
55538;BME280;41383;51.418;7.286;2023-05-21T02:44:13;99928.66;;;13.94;75.95
55538;BME280;41383;51.418;7.286;2023-05-21T02:46:38;99932.50;;;13.98;76.00
55538;BME280;41383;51.418;7.286;2023-05-21T02:49:04;99935.22;;;13.98;76.29
55538;BME280;41383;51.418;7.286;2023-05-21T02:51:29;99943.44;;;14.03;76.07
55538;BME280;41383;51.418;7.286;2023-05-21T02:53:54;99939.88;;;13.97;76.39
55538;BME280;41383;51.418;7.286;2023-05-21T02:56:19;99937.69;;;13.99;76.13
55538;BME280;41383;51.418;7.286;2023-05-21T02:58:45;99933.34;;;13.93;76.29
55538;BME280;41383;51.418;7.286;2023-05-21T03:01:10;99937.78;;;13.89;76.12
55538;BME280;41383;51.418;7.286;2023-05-21T03:03:35;99934.22;;;13.83;76.11
55538;BME280;41383;51.418;7.286;2023-05-21T03:06:01;99936.41;;;13.81;76.60
55538;BME280;41383;51.418;7.286;2023-05-21T03:08:26;99935.88;;;13.79;76.99
55538;BME280;41383;51.418;7.286;2023-05-21T03:10:51;99941.91;;;13.81;76.82
55538;BME280;41383;51.418;7.286;2023-05-21T03:13:17;99935.88;;;13.84;76.52
55538;BME280;41383;51.418;7.286;2023-05-21T03:15:42;99931.47;;;13.83;76.42
55538;BME280;41383;51.418;7.286;2023-05-21T03:18:08;99932.06;;;13.80;76.49
55538;BME280;41383;51.418;7.286;2023-05-21T03:20:33;99917.53;;;13.80;76.65
55538;BME280;41383;51.418;7.286;2023-05-21T03:22:59;99929.84;;;13.77;76.86
55538;BME280;41383;51.418;7.286;2023-05-21T03:25:24;99923.03;;;13.74;76.84
55538;BME280;41383;51.418;7.286;2023-05-21T03:27:50;99924.13;;;13.73;77.07
55538;BME280;41383;51.418;7.286;2023-05-21T03:30:16;99911.25;;;13.74;77.29
55538;BME280;41383;51.418;7.286;2023-05-21T03:32:41;99916.69;;;13.79;76.73
55538;BME280;41383;51.418;7.286;2023-05-21T03:35:09;99918.13;;;13.71;77.17
55538;BME280;41383;51.418;7.286;2023-05-21T03:37:34;99923.88;;;13.70;77.02
55538;BME280;41383;51.418;7.286;2023-05-21T03:40:00;99924.16;;;13.68;77.34
55538;BME280;41383;51.418;7.286;2023-05-21T03:42:25;99918.94;;;13.72;77.39
55538;BME280;41383;51.418;7.286;2023-05-21T03:44:50;99907.44;;;13.70;77.52
55538;BME280;41383;51.418;7.286;2023-05-21T03:47:15;99903.34;;;13.67;77.82
55538;BME280;41383;51.418;7.286;2023-05-21T03:49:41;99915.94;;;13.68;77.77
55538;BME280;41383;51.418;7.286;2023-05-21T03:52:06;99909.34;;;13.74;77.55
55538;BME280;41383;51.418;7.286;2023-05-21T03:54:31;99921.38;;;13.79;77.11
55538;BME280;41383;51.418;7.286;2023-05-21T03:56:56;99919.72;;;13.77;77.48
55538;BME280;41383;51.418;7.286;2023-05-21T03:59:22;99934.28;;;13.73;77.71
55538;BME280;41383;51.418;7.286;2023-05-21T04:01:47;99927.16;;;13.72;77.90
55538;BME280;41383;51.418;7.286;2023-05-21T04:04:12;99930.41;;;13.79;77.14
55538;BME280;41383;51.418;7.286;2023-05-21T04:06:37;99924.38;;;13.77;77.54
55538;BME280;41383;51.418;7.286;2023-05-21T04:09:03;99924.13;;;13.79;77.30
55538;BME280;41383;51.418;7.286;2023-05-21T04:11:29;99927.66;;;13.84;77.07
55538;BME280;41383;51.418;7.286;2023-05-21T04:13:55;99921.03;;;13.85;77.69
55538;BME280;41383;51.418;7.286;2023-05-21T04:16:20;99929.25;;;13.85;77.12
55538;BME280;41383;51.418;7.286;2023-05-21T04:18:46;99927.09;;;13.82;77.54
55538;BME280;41383;51.418;7.286;2023-05-21T04:21:12;99924.38;;;13.82;77.33
55538;BME280;41383;51.418;7.286;2023-05-21T04:23:37;99922.44;;;13.83;77.58
55538;BME280;41383;51.418;7.286;2023-05-21T04:26:02;99924.91;;;13.84;77.47
55538;BME280;41383;51.418;7.286;2023-05-21T04:28:28;99926.53;;;13.85;77.85
55538;BME280;41383;51.418;7.286;2023-05-21T04:30:54;99923.19;;;13.94;77.53
55538;BME280;41383;51.418;7.286;2023-05-21T04:33:20;99931.13;;;13.95;77.42
55538;BME280;41383;51.418;7.286;2023-05-21T04:35:49;99934.94;;;13.99;77.45
55538;BME280;41383;51.418;7.286;2023-05-21T04:38:15;99927.53;;;14.00;77.44
55538;BME280;41383;51.418;7.286;2023-05-21T04:40:48;99923.97;;;14.05;77.12
55538;BME280;41383;51.418;7.286;2023-05-21T04:43:15;99940.91;;;14.12;77.18
55538;BME280;41383;51.418;7.286;2023-05-21T04:45:41;99939.81;;;14.13;77.07
55538;BME280;41383;51.418;7.286;2023-05-21T04:48:06;99937.25;;;14.22;76.57
55538;BME280;41383;51.418;7.286;2023-05-21T04:50:31;99937.25;;;14.22;76.29
55538;BME280;41383;51.418;7.286;2023-05-21T04:52:57;99935.06;;;14.24;76.64
55538;BME280;41383;51.418;7.286;2023-05-21T04:55:23;99935.56;;;14.31;75.77
55538;BME280;41383;51.418;7.286;2023-05-21T04:57:48;99939.44;;;14.25;76.60
55538;BME280;41383;51.418;7.286;2023-05-21T05:00:13;99926.28;;;14.27;76.69
55538;BME280;41383;51.418;7.286;2023-05-21T05:02:38;99933.06;;;14.35;76.05
55538;BME280;41383;51.418;7.286;2023-05-21T05:05:04;99932.47;;;14.38;75.84
55538;BME280;41383;51.418;7.286;2023-05-21T05:07:29;99930.56;;;14.39;76.04
55538;BME280;41383;51.418;7.286;2023-05-21T05:09:55;99930.84;;;14.37;75.88
55538;BME280;41383;51.418;7.286;2023-05-21T05:12:20;99923.63;;;14.46;75.83
55538;BME280;41383;51.418;7.286;2023-05-21T05:14:45;99921.44;;;14.48;75.67
55538;BME280;41383;51.418;7.286;2023-05-21T05:17:11;99929.63;;;14.54;75.58
55538;BME280;41383;51.418;7.286;2023-05-21T05:19:39;99917.50;;;14.60;75.01
55538;BME280;41383;51.418;7.286;2023-05-21T05:22:05;99928.81;;;14.53;75.51
55538;BME280;41383;51.418;7.286;2023-05-21T05:24:30;99920.78;;;14.62;75.26
55538;BME280;41383;51.418;7.286;2023-05-21T05:26:56;99923.00;;;14.60;75.36
55538;BME280;41383;51.418;7.286;2023-05-21T05:29:21;99917.44;;;14.65;75.43
55538;BME280;41383;51.418;7.286;2023-05-21T05:31:46;99927.59;;;14.65;75.19
55538;BME280;41383;51.418;7.286;2023-05-21T05:34:11;99921.78;;;14.71;74.95
55538;BME280;41383;51.418;7.286;2023-05-21T05:36:37;99923.38;;;14.78;74.43
55538;BME280;41383;51.418;7.286;2023-05-21T05:39:02;99930.25;;;14.75;74.63
55538;BME280;41383;51.418;7.286;2023-05-21T05:41:27;99925.88;;;14.74;75.07
55538;BME280;41383;51.418;7.286;2023-05-21T05:43:52;99927.28;;;14.71;75.89
55538;BME280;41383;51.418;7.286;2023-05-21T05:46:18;99924.72;;;14.80;75.43
55538;BME280;41383;51.418;7.286;2023-05-21T05:48:43;99921.97;;;14.80;75.79
55538;BME280;41383;51.418;7.286;2023-05-21T05:51:08;99926.41;;;14.76;75.42
55538;BME280;41383;51.418;7.286;2023-05-21T05:53:33;99929.69;;;14.78;75.72
55538;BME280;41383;51.418;7.286;2023-05-21T05:55:59;99927.38;;;14.91;75.23
55538;BME280;41383;51.418;7.286;2023-05-21T05:58:24;99922.78;;;14.86;75.55
55538;BME280;41383;51.418;7.286;2023-05-21T06:00:50;99919.13;;;14.91;75.65
55538;BME280;41383;51.418;7.286;2023-05-21T06:03:16;99922.69;;;14.97;75.46
55538;BME280;41383;51.418;7.286;2023-05-21T06:05:42;99913.50;;;15.07;74.85
55538;BME280;41383;51.418;7.286;2023-05-21T06:08:07;99920.28;;;15.14;74.66
55538;BME280;41383;51.418;7.286;2023-05-21T06:10:32;99919.97;;;15.16;74.55
55538;BME280;41383;51.418;7.286;2023-05-21T06:12:58;99921.69;;;15.12;74.82
55538;BME280;41383;51.418;7.286;2023-05-21T06:15:23;99926.81;;;15.19;74.86
55538;BME280;41383;51.418;7.286;2023-05-21T06:17:48;99913.41;;;15.17;75.11
55538;BME280;41383;51.418;7.286;2023-05-21T06:20:14;99916.28;;;15.26;74.57
55538;BME280;41383;51.418;7.286;2023-05-21T06:22:40;99910.75;;;15.31;74.14
55538;BME280;41383;51.418;7.286;2023-05-21T06:25:06;99917.41;;;15.25;75.12
55538;BME280;41383;51.418;7.286;2023-05-21T06:27:32;99918.78;;;15.27;75.14
55538;BME280;41383;51.418;7.286;2023-05-21T06:29:57;99918.09;;;15.36;74.48
55538;BME280;41383;51.418;7.286;2023-05-21T06:32:23;99927.16;;;15.36;74.64
55538;BME280;41383;51.418;7.286;2023-05-21T06:34:49;99915.72;;;15.29;75.31
55538;BME280;41383;51.418;7.286;2023-05-21T06:37:18;99912.56;;;15.41;74.22
55538;BME280;41383;51.418;7.286;2023-05-21T06:39:44;99915.22;;;15.46;74.14
55538;BME280;41383;51.418;7.286;2023-05-21T06:42:10;99909.59;;;15.37;75.37
55538;BME280;41383;51.418;7.286;2023-05-21T06:44:35;99896.13;;;15.36;75.03
55538;BME280;41383;51.418;7.286;2023-05-21T06:47:01;99907.25;;;15.25;75.65
55538;BME280;41383;51.418;7.286;2023-05-21T06:49:26;99902.56;;;15.26;75.24
55538;BME280;41383;51.418;7.286;2023-05-21T06:51:51;99899.47;;;15.33;75.10
55538;BME280;41383;51.418;7.286;2023-05-21T06:54:16;99897.69;;;15.42;74.63
55538;BME280;41383;51.418;7.286;2023-05-21T06:56:42;99902.63;;;15.21;75.78
55538;BME280;41383;51.418;7.286;2023-05-21T06:59:07;99901.13;;;15.09;76.17
55538;BME280;41383;51.418;7.286;2023-05-21T07:01:33;99905.56;;;15.05;76.57
55538;BME280;41383;51.418;7.286;2023-05-21T07:03:58;99895.38;;;15.05;76.54
55538;BME280;41383;51.418;7.286;2023-05-21T07:06:23;99895.03;;;15.12;76.26
55538;BME280;41383;51.418;7.286;2023-05-21T07:08:48;99883.56;;;15.29;75.35
55538;BME280;41383;51.418;7.286;2023-05-21T07:11:14;99894.81;;;15.33;75.73
55538;BME280;41383;51.418;7.286;2023-05-21T07:13:39;99888.59;;;15.22;75.79
55538;BME280;41383;51.418;7.286;2023-05-21T07:16:05;99883.75;;;15.38;75.07
55538;BME280;41383;51.418;7.286;2023-05-21T07:18:30;99880.56;;;15.50;75.00
55538;BME280;41383;51.418;7.286;2023-05-21T07:20:55;99878.72;;;15.65;74.08
55538;BME280;41383;51.418;7.286;2023-05-21T07:23:21;99880.81;;;15.73;74.21
55538;BME280;41383;51.418;7.286;2023-05-21T07:25:46;99880.81;;;15.73;73.56
55538;BME280;41383;51.418;7.286;2023-05-21T07:28:11;99876.34;;;15.78;74.09
55538;BME280;41383;51.418;7.286;2023-05-21T07:30:37;99882.22;;;15.90;73.56
55538;BME280;41383;51.418;7.286;2023-05-21T07:33:02;99885.38;;;16.03;72.96
55538;BME280;41383;51.418;7.286;2023-05-21T07:35:27;99890.59;;;15.99;73.31
55538;BME280;41383;51.418;7.286;2023-05-21T07:37:53;99884.97;;;16.09;72.73
55538;BME280;41383;51.418;7.286;2023-05-21T07:40:18;99890.25;;;16.06;73.36
55538;BME280;41383;51.418;7.286;2023-05-21T07:42:43;99884.16;;;16.09;73.76
55538;BME280;41383;51.418;7.286;2023-05-21T07:45:09;99884.44;;;16.07;73.46
55538;BME280;41383;51.418;7.286;2023-05-21T07:47:34;99882.28;;;16.24;73.12
55538;BME280;41383;51.418;7.286;2023-05-21T07:50:00;99882.94;;;16.34;72.52
55538;BME280;41383;51.418;7.286;2023-05-21T07:52:25;99886.78;;;16.33;72.56
55538;BME280;41383;51.418;7.286;2023-05-21T07:54:50;99888.84;;;16.42;72.27
55538;BME280;41383;51.418;7.286;2023-05-21T07:57:15;99882.44;;;16.47;72.34
55538;BME280;41383;51.418;7.286;2023-05-21T07:59:41;99883.66;;;16.40;72.86
55538;BME280;41383;51.418;7.286;2023-05-21T08:02:06;99893.97;;;16.49;72.99
55538;BME280;41383;51.418;7.286;2023-05-21T08:04:32;99887.34;;;16.50;72.17
55538;BME280;41383;51.418;7.286;2023-05-21T08:06:57;99892.78;;;16.55;72.24
55538;BME280;41383;51.418;7.286;2023-05-21T08:09:22;99890.88;;;16.36;73.24
55538;BME280;41383;51.418;7.286;2023-05-21T08:11:47;99890.56;;;16.38;72.95
55538;BME280;41383;51.418;7.286;2023-05-21T08:14:13;99896.03;;;16.57;72.29
55538;BME280;41383;51.418;7.286;2023-05-21T08:16:38;99906.03;;;16.67;72.58
55538;BME280;41383;51.418;7.286;2023-05-21T08:19:03;99902.53;;;16.47;73.04
55538;BME280;41383;51.418;7.286;2023-05-21T08:21:28;99895.72;;;16.59;73.01
55538;BME280;41383;51.418;7.286;2023-05-21T08:23:54;99894.38;;;16.56;72.74
55538;BME280;41383;51.418;7.286;2023-05-21T08:26:19;99908.69;;;16.72;72.36
55538;BME280;41383;51.418;7.286;2023-05-21T08:28:45;99909.03;;;16.85;71.75
55538;BME280;41383;51.418;7.286;2023-05-21T08:31:11;99910.25;;;16.92;71.69
55538;BME280;41383;51.418;7.286;2023-05-21T08:33:36;99906.91;;;16.96;71.95
55538;BME280;41383;51.418;7.286;2023-05-21T08:36:03;99908.94;;;17.04;71.31
55538;BME280;41383;51.418;7.286;2023-05-21T08:38:29;99910.16;;;17.12;70.86
55538;BME280;41383;51.418;7.286;2023-05-21T08:40:55;99910.78;;;17.09;71.12
55538;BME280;41383;51.418;7.286;2023-05-21T08:43:21;99916.09;;;17.19;71.22
55538;BME280;41383;51.418;7.286;2023-05-21T08:45:53;99917.31;;;17.27;70.50
55538;BME280;41383;51.418;7.286;2023-05-21T08:48:21;99903.47;;;17.32;70.41
55538;BME280;41383;51.418;7.286;2023-05-21T08:50:47;99914.88;;;17.39;70.17
55538;BME280;41383;51.418;7.286;2023-05-21T08:53:13;99902.94;;;17.44;69.95
55538;BME280;41383;51.418;7.286;2023-05-21T08:55:40;99910.38;;;17.44;70.19
55538;BME280;41383;51.418;7.286;2023-05-21T08:58:06;99903.25;;;17.43;70.40
55538;BME280;41383;51.418;7.286;2023-05-21T09:00:31;99897.53;;;17.53;69.91
55538;BME280;41383;51.418;7.286;2023-05-21T09:02:58;99895.78;;;17.57;69.98
55538;BME280;41383;51.418;7.286;2023-05-21T09:05:25;99902.38;;;17.70;69.45
55538;BME280;41383;51.418;7.286;2023-05-21T09:10:22;99897.56;;;17.76;69.98
55538;BME280;41383;51.418;7.286;2023-05-21T09:12:51;99891.78;;;18.01;68.82
55538;BME280;41383;51.418;7.286;2023-05-21T09:15:16;99894.44;;;18.06;68.11
55538;BME280;41383;51.418;7.286;2023-05-21T09:17:45;99892.34;;;18.12;68.65
55538;BME280;41383;51.418;7.286;2023-05-21T09:20:13;99888.16;;;18.14;68.26
55538;BME280;41383;51.418;7.286;2023-05-21T09:22:42;99882.84;;;18.18;67.70
55538;BME280;41383;51.418;7.286;2023-05-21T09:25:09;99884.25;;;18.15;68.01
55538;BME280;41383;51.418;7.286;2023-05-21T09:27:35;99878.97;;;18.19;67.91
55538;BME280;41383;51.418;7.286;2023-05-21T09:30:02;99877.69;;;18.25;67.43
55538;BME280;41383;51.418;7.286;2023-05-21T09:32:27;99879.34;;;18.26;67.23
55538;BME280;41383;51.418;7.286;2023-05-21T09:34:52;99875.81;;;18.35;66.80
55538;BME280;41383;51.418;7.286;2023-05-21T09:37:18;99874.38;;;18.37;66.93
55538;BME280;41383;51.418;7.286;2023-05-21T09:39:46;99872.28;;;18.43;66.48
55538;BME280;41383;51.418;7.286;2023-05-21T09:42:12;99869.41;;;18.48;66.27
55538;BME280;41383;51.418;7.286;2023-05-21T09:44:37;99860.97;;;18.53;66.48
55538;BME280;41383;51.418;7.286;2023-05-21T09:47:03;99869.75;;;18.55;66.53
55538;BME280;41383;51.418;7.286;2023-05-21T09:49:28;99866.88;;;18.61;66.17
55538;BME280;41383;51.418;7.286;2023-05-21T09:51:55;99873.56;;;18.69;66.25
55538;BME280;41383;51.418;7.286;2023-05-21T09:54:21;99863.38;;;18.78;65.82
55538;BME280;41383;51.418;7.286;2023-05-21T09:56:47;99863.38;;;18.78;65.49
55538;BME280;41383;51.418;7.286;2023-05-21T09:59:12;99859.16;;;18.81;65.88
55538;BME280;41383;51.418;7.286;2023-05-21T10:01:37;99861.72;;;18.68;67.32
55538;BME280;41383;51.418;7.286;2023-05-21T10:04:05;99860.44;;;18.74;66.03
55538;BME280;41383;51.418;7.286;2023-05-21T10:06:33;99859.78;;;18.77;66.49
55538;BME280;41383;51.418;7.286;2023-05-21T10:09:02;99858.78;;;18.73;66.19
55538;BME280;41383;51.418;7.286;2023-05-21T10:11:31;99848.13;;;18.81;66.20
55538;BME280;41383;51.418;7.286;2023-05-21T10:14:04;99845.53;;;18.84;65.83
55538;BME280;41383;51.418;7.286;2023-05-21T10:16:32;99841.31;;;18.87;66.09
55538;BME280;41383;51.418;7.286;2023-05-21T10:18:57;99844.88;;;18.78;66.30
55538;BME280;41383;51.418;7.286;2023-05-21T10:21:23;99840.34;;;18.83;66.82
55538;BME280;41383;51.418;7.286;2023-05-21T10:23:50;99837.78;;;18.95;66.55
55538;BME280;41383;51.418;7.286;2023-05-21T10:26:17;99840.53;;;18.95;66.86
55538;BME280;41383;51.418;7.286;2023-05-21T10:28:43;99845.28;;;19.04;67.05
55538;BME280;41383;51.418;7.286;2023-05-21T10:31:10;99841.72;;;19.12;66.70
55538;BME280;41383;51.418;7.286;2023-05-21T10:33:37;99839.66;;;19.18;66.56
55538;BME280;41383;51.418;7.286;2023-05-21T10:36:02;99841.16;;;19.24;66.75
55538;BME280;41383;51.418;7.286;2023-05-21T10:38:28;99838.19;;;19.20;67.03
55538;BME280;41383;51.418;7.286;2023-05-21T10:40:54;99846.84;;;19.28;68.02
55538;BME280;41383;51.418;7.286;2023-05-21T10:43:47;99833.19;;;19.31;67.12
55538;BME280;41383;51.418;7.286;2023-05-21T10:46:22;99834.97;;;19.36;66.71
55538;BME280;41383;51.418;7.286;2023-05-21T10:49:16;99829.28;;;19.41;66.48
55538;BME280;41383;51.418;7.286;2023-05-21T10:52:03;99831.72;;;19.34;67.07
55538;BME280;41383;51.418;7.286;2023-05-21T11:00:10;99819.22;;;19.45;66.73
55538;BME280;41383;51.418;7.286;2023-05-21T11:02:36;99818.06;;;19.55;66.88
55538;BME280;41383;51.418;7.286;2023-05-21T11:05:02;99814.34;;;19.60;66.34
55538;BME280;41383;51.418;7.286;2023-05-21T11:10:30;99815.47;;;19.59;66.61
55538;BME280;41383;51.418;7.286;2023-05-21T11:13:13;99809.94;;;19.59;66.54
55538;BME280;41383;51.418;7.286;2023-05-21T11:18:23;99813.53;;;19.68;66.87
55538;BME280;41383;51.418;7.286;2023-05-21T11:20:49;99802.13;;;19.88;65.58
55538;BME280;41383;51.418;7.286;2023-05-21T11:23:15;99802.28;;;20.00;65.53
55538;BME280;41383;51.418;7.286;2023-05-21T11:25:40;99801.97;;;20.11;65.58
55538;BME280;41383;51.418;7.286;2023-05-21T11:28:06;99807.97;;;20.22;65.82
55538;BME280;41383;51.418;7.286;2023-05-21T11:30:33;99809.38;;;20.28;64.54
55538;BME280;41383;51.418;7.286;2023-05-21T11:35:54;99814.28;;;20.31;64.22
55538;BME280;41383;51.418;7.286;2023-05-21T11:38:20;99809.34;;;20.46;64.29
55538;BME280;41383;51.418;7.286;2023-05-21T11:40:49;99808.69;;;20.49;63.71
55538;BME280;41383;51.418;7.286;2023-05-21T11:43:17;99803.63;;;20.51;64.87
55538;BME280;41383;51.418;7.286;2023-05-21T11:45:43;99805.25;;;20.52;64.67
55538;BME280;41383;51.418;7.286;2023-05-21T11:48:12;99814.69;;;20.60;64.10
55538;BME280;41383;51.418;7.286;2023-05-21T11:50:38;99802.31;;;20.57;63.87
55538;BME280;41383;51.418;7.286;2023-05-21T11:53:06;99802.63;;;20.56;64.91
55538;BME280;41383;51.418;7.286;2023-05-21T11:55:33;99805.69;;;20.63;64.15
55538;BME280;41383;51.418;7.286;2023-05-21T11:58:03;99801.66;;;20.60;64.75
55538;BME280;41383;51.418;7.286;2023-05-21T12:00:28;99797.53;;;20.67;64.30
55538;BME280;41383;51.418;7.286;2023-05-21T12:02:54;99793.06;;;20.83;63.70
55538;BME280;41383;51.418;7.286;2023-05-21T12:05:20;99795.34;;;20.81;63.96
55538;BME280;41383;51.418;7.286;2023-05-21T12:07:47;99799.56;;;20.87;63.92
55538;BME280;41383;51.418;7.286;2023-05-21T12:10:13;99805.56;;;20.90;63.70
55538;BME280;41383;51.418;7.286;2023-05-21T12:12:39;99791.84;;;21.02;62.98
55538;BME280;41383;51.418;7.286;2023-05-21T12:15:05;99790.84;;;21.07;63.13
55538;BME280;41383;51.418;7.286;2023-05-21T12:17:31;99790.84;;;21.07;63.60
55538;BME280;41383;51.418;7.286;2023-05-21T12:19:56;99787.25;;;21.06;63.03
55538;BME280;41383;51.418;7.286;2023-05-21T12:22:23;99787.47;;;21.01;63.21
55538;BME280;41383;51.418;7.286;2023-05-21T12:24:49;99794.47;;;20.98;63.77
55538;BME280;41383;51.418;7.286;2023-05-21T12:27:14;99788.72;;;21.04;63.14
55538;BME280;41383;51.418;7.286;2023-05-21T12:29:42;99793.94;;;21.05;63.79
55538;BME280;41383;51.418;7.286;2023-05-21T12:32:10;99795.09;;;21.04;63.44
55538;BME280;41383;51.418;7.286;2023-05-21T12:34:44;99792.31;;;21.04;63.70
55538;BME280;41383;51.418;7.286;2023-05-21T12:37:19;99789.06;;;21.02;63.79
55538;BME280;41383;51.418;7.286;2023-05-21T12:39:47;99795.56;;;21.06;63.65
55538;BME280;41383;51.418;7.286;2023-05-21T12:42:13;99793.13;;;21.05;64.36
55538;BME280;41383;51.418;7.286;2023-05-21T12:44:42;99786.91;;;21.08;64.56
55538;BME280;41383;51.418;7.286;2023-05-21T12:47:09;99786.09;;;21.07;64.48
55538;BME280;41383;51.418;7.286;2023-05-21T12:49:39;99773.41;;;21.49;63.44
55538;BME280;41383;51.418;7.286;2023-05-21T12:52:12;99777.03;;;21.62;63.10
55538;BME280;41383;51.418;7.286;2023-05-21T12:54:40;99771.28;;;21.67;62.92
55538;BME280;41383;51.418;7.286;2023-05-21T12:57:13;99773.25;;;21.67;63.19
55538;BME280;41383;51.418;7.286;2023-05-21T12:59:43;99776.13;;;21.58;62.92
55538;BME280;41383;51.418;7.286;2023-05-21T13:02:13;99780.50;;;21.59;62.93
55538;BME280;41383;51.418;7.286;2023-05-21T13:04:38;99778.78;;;21.67;63.30
55538;BME280;41383;51.418;7.286;2023-05-21T13:07:04;99774.31;;;21.75;63.21
55538;BME280;41383;51.418;7.286;2023-05-21T13:09:29;99775.69;;;21.90;62.05
55538;BME280;41383;51.418;7.286;2023-05-21T13:11:55;99765.06;;;21.92;61.95